createdAt,value
2023-03-31T00:00:22.173Z,3.55
2023-03-31T00:04:22.331Z,3.22
2023-03-31T00:08:22.470Z,3.92
2023-03-31T00:12:22.644Z,3.48
2023-03-31T00:16:22.808Z,3.40
2023-03-31T00:20:22.916Z,3.19
2023-03-31T00:24:23.055Z,2.78
2023-03-31T00:28:23.229Z,3.87
2023-03-31T00:32:23.513Z,2.82
2023-03-31T00:36:23.648Z,3.66
2023-03-31T00:40:23.852Z,3.73
2023-03-31T00:44:24.081Z,3.60
2023-03-31T00:48:24.340Z,4.35
2023-03-31T00:52:24.203Z,3.64
2023-03-31T00:56:24.189Z,4.07
2023-03-31T01:00:24.229Z,3.61
2023-03-31T01:04:24.175Z,4.15
2023-03-31T01:08:24.080Z,4.08
2023-03-31T01:12:24.037Z,3.49
2023-03-31T01:16:24.051Z,3.87
2023-03-31T01:20:24.005Z,3.92
2023-03-31T01:24:23.909Z,3.61
2023-03-31T01:28:23.912Z,3.80
2023-03-31T01:32:23.928Z,3.70
2023-03-31T01:36:23.928Z,4.23
2023-03-31T01:40:23.977Z,3.53
2023-03-31T01:44:23.874Z,4.64
2023-03-31T01:48:23.892Z,3.63
2023-03-31T01:52:24.013Z,3.49
2023-03-31T01:56:23.916Z,4.25
2023-03-31T02:00:23.924Z,4.10
2023-03-31T02:04:23.948Z,4.23
2023-03-31T02:08:23.934Z,4.17
2023-03-31T02:12:23.932Z,4.02
2023-03-31T02:16:24.025Z,4.18
2023-03-31T02:20:23.975Z,3.36
2023-03-31T02:24:24.015Z,4.07
2023-03-31T02:28:24.061Z,3.89
2023-03-31T02:32:24.161Z,3.98
2023-03-31T02:36:24.162Z,3.31
2023-03-31T02:40:24.297Z,3.71
2023-03-31T02:44:24.308Z,4.03
2023-03-31T02:48:24.369Z,3.15
2023-03-31T02:52:24.441Z,3.86
2023-03-31T02:56:24.543Z,3.32
2023-03-31T03:00:24.622Z,3.29
2023-03-31T03:04:24.717Z,3.50
2023-03-31T03:08:24.840Z,3.75
2023-03-31T03:12:24.972Z,3.84
2023-03-31T03:16:25.121Z,3.90
2023-03-31T03:20:25.232Z,3.62
2023-03-31T03:24:25.325Z,4.07
2023-03-31T03:28:25.500Z,3.94
2023-03-31T03:32:25.626Z,4.03
2023-03-31T03:36:25.829Z,4.62
2023-03-31T03:40:25.900Z,4.23
2023-03-31T03:44:25.984Z,5.36
2023-03-31T03:48:26.144Z,4.18
2023-03-31T03:52:26.254Z,3.91
2023-03-31T03:56:26.404Z,4.48
2023-03-31T04:00:26.557Z,4.65
2023-03-31T04:04:26.689Z,4.86
2023-03-31T04:08:26.819Z,4.71
2023-03-31T04:12:26.979Z,4.95
2023-03-31T04:16:27.155Z,4.51
2023-03-31T04:20:27.308Z,5.63
2023-03-31T04:24:27.403Z,4.40
2023-03-31T04:28:27.649Z,4.79
2023-03-31T04:32:27.756Z,5.83
2023-03-31T04:36:27.888Z,4.63
2023-03-31T04:40:28.053Z,5.40
2023-03-31T04:44:28.234Z,5.46
2023-03-31T04:48:28.368Z,5.64
2023-03-31T04:52:28.537Z,5.06
2023-03-31T04:56:28.620Z,4.73
2023-03-31T05:00:28.824Z,4.57
2023-03-31T05:04:28.918Z,4.44
2023-03-31T05:08:29.058Z,4.45
2023-03-31T05:12:29.177Z,4.53
2023-03-31T05:16:29.367Z,4.25
2023-03-31T05:20:29.410Z,4.00
2023-03-31T05:24:29.533Z,4.59
2023-03-31T05:28:30.825Z,4.60
2023-03-31T05:32:29.793Z,4.17
2023-03-31T05:36:29.841Z,3.59
2023-03-31T05:40:30.156Z,3.79
2023-03-31T05:44:30.161Z,3.81
2023-03-31T05:48:30.173Z,3.26
2023-03-31T05:52:29.967Z,3.51
2023-03-31T05:56:30.150Z,4.32
2023-03-31T06:00:30.690Z,3.92
2023-03-31T06:04:30.321Z,3.79
2023-03-31T06:08:30.675Z,3.86
2023-03-31T06:12:30.525Z,4.05
2023-03-31T06:16:30.496Z,3.96
2023-03-31T06:20:30.473Z,4.50
2023-03-31T06:24:30.426Z,3.98
2023-03-31T06:28:30.381Z,3.51
2023-03-31T06:32:30.369Z,4.05
2023-03-31T06:36:30.332Z,4.74
2023-03-31T06:40:30.338Z,4.28
2023-03-31T06:44:30.219Z,4.35
2023-03-31T06:48:30.196Z,4.23
2023-03-31T06:52:30.195Z,4.26
2023-03-31T06:56:30.190Z,4.05
2023-03-31T07:00:30.194Z,3.47
2023-03-31T07:04:30.087Z,3.89
2023-03-31T07:08:29.993Z,4.95
2023-03-31T07:12:29.977Z,3.27
2023-03-31T07:16:29.941Z,3.42
2023-03-31T07:20:30.182Z,2.80
2023-03-31T07:24:30.210Z,3.30
2023-03-31T07:28:29.826Z,3.28
2023-03-31T07:32:29.864Z,3.32
2023-03-31T07:36:29.764Z,2.54
2023-03-31T07:40:30.215Z,3.11
2023-03-31T07:44:29.649Z,3.40
2023-03-31T07:48:29.734Z,3.40
2023-03-31T07:52:29.617Z,3.08
2023-03-31T07:56:29.611Z,3.69
2023-03-31T08:00:29.544Z,3.41
2023-03-31T08:04:29.571Z,3.41
2023-03-31T08:08:29.729Z,3.06
2023-03-31T08:12:29.534Z,3.04
2023-03-31T08:16:30.602Z,3.37
2023-03-31T08:20:29.833Z,3.04
2023-03-31T08:24:30.009Z,2.82
2023-03-31T08:28:30.215Z,3.51
2023-03-31T08:32:30.312Z,3.48
2023-03-31T08:36:30.384Z,3.14
2023-03-31T08:40:30.725Z,3.03
2023-03-31T08:44:30.752Z,3.59
2023-03-31T08:48:30.764Z,2.93
2023-03-31T08:52:31.265Z,3.27
2023-03-31T08:56:31.046Z,3.70
2023-03-31T09:00:31.001Z,3.19
2023-03-31T09:04:30.994Z,3.71
2023-03-31T09:08:31.217Z,3.54
2023-03-31T09:12:30.933Z,3.65
2023-03-31T09:16:30.982Z,4.29
2023-03-31T09:20:30.892Z,4.15
2023-03-31T09:24:32.496Z,4.27
2023-03-31T09:28:31.267Z,4.55
2023-03-31T09:32:30.750Z,4.11
2023-03-31T09:36:30.780Z,3.83
2023-03-31T09:40:31.255Z,3.98
2023-03-31T09:44:31.254Z,3.97
2023-03-31T09:48:30.763Z,4.54
2023-03-31T09:52:30.763Z,3.91
2023-03-31T09:56:30.800Z,4.31
2023-03-31T10:00:30.645Z,4.16
2023-03-31T10:04:30.827Z,3.39
2023-03-31T10:08:30.636Z,3.77
2023-03-31T10:12:30.790Z,3.61
2023-03-31T10:16:30.543Z,3.32
2023-03-31T10:20:30.489Z,3.94
2023-03-31T10:24:30.438Z,3.18
2023-03-31T10:28:30.803Z,2.94
2023-03-31T10:32:30.824Z,2.83
2023-03-31T10:36:30.740Z,3.22
2023-03-31T10:40:30.822Z,4.27
2023-03-31T10:44:30.278Z,3.72
2023-03-31T10:48:30.306Z,3.30
2023-03-31T10:52:30.365Z,4.62
2023-03-31T10:56:30.843Z,3.28
2023-03-31T11:00:30.303Z,3.40
2023-03-31T11:04:30.296Z,4.19
2023-03-31T11:08:30.190Z,3.28
2023-03-31T11:12:30.189Z,3.11
2023-03-31T11:16:30.164Z,3.06
2023-03-31T11:20:30.876Z,3.38
2023-03-31T11:24:30.343Z,4.66
2023-03-31T11:28:30.317Z,5.22
2023-03-31T11:32:31.577Z,5.25
2023-03-31T11:36:30.287Z,4.41
2023-03-31T11:40:29.960Z,4.21
2023-03-31T11:44:30.287Z,3.69
2023-03-31T11:48:30.030Z,3.77
2023-03-31T11:52:29.861Z,3.61
2023-03-31T11:56:30.300Z,3.00
2023-03-31T12:00:29.819Z,3.04
2023-03-31T12:02:43.782Z,2.82
2023-03-31T12:03:43.846Z,3.08
2023-03-31T12:04:43.726Z,2.91
2023-03-31T12:05:43.817Z,2.43
2023-03-31T12:06:43.746Z,2.18
2023-03-31T12:07:43.718Z,2.52
2023-03-31T12:08:43.718Z,2.60
2023-03-31T12:09:43.738Z,2.61
2023-03-31T12:10:43.729Z,3.00
2023-03-31T12:11:43.732Z,2.75
2023-03-31T12:12:43.717Z,2.60
2023-03-31T12:13:43.693Z,2.66
2023-03-31T12:14:43.694Z,2.38
2023-03-31T12:15:43.725Z,2.81
2023-03-31T12:16:43.691Z,2.78
2023-03-31T12:17:43.678Z,2.86
2023-03-31T12:18:43.656Z,2.59
2023-03-31T12:19:43.660Z,2.49
2023-03-31T12:20:43.635Z,2.38
2023-03-31T12:21:43.647Z,2.59
2023-03-31T12:22:43.689Z,2.02
2023-03-31T12:23:43.629Z,2.66
2023-03-31T12:24:43.589Z,2.27
2023-03-31T12:25:43.606Z,2.21
2023-03-31T12:26:43.618Z,2.48
2023-03-31T12:27:43.602Z,2.63
2023-03-31T12:28:43.623Z,2.87
2023-03-31T12:29:43.591Z,2.48
2023-03-31T12:30:43.584Z,2.49
2023-03-31T12:31:43.585Z,2.44
2023-03-31T12:32:43.608Z,2.49
2023-03-31T12:33:43.558Z,2.43
2023-03-31T12:34:43.552Z,2.57
2023-03-31T12:35:43.579Z,2.57
2023-03-31T12:36:43.545Z,2.57
2023-03-31T12:37:43.527Z,2.81
2023-03-31T12:38:43.521Z,2.73
2023-03-31T12:39:43.500Z,2.53
2023-03-31T12:40:43.493Z,2.35
2023-03-31T12:41:43.492Z,2.33
2023-03-31T12:42:43.516Z,2.65
2023-03-31T12:43:43.513Z,2.50
2023-03-31T12:44:43.498Z,2.39
2023-03-31T12:45:43.501Z,2.46
2023-03-31T12:46:43.578Z,2.30
2023-03-31T12:47:43.545Z,2.08
2023-03-31T12:48:43.436Z,1.79
2023-03-31T12:49:43.495Z,2.39
2023-03-31T12:50:43.465Z,2.41
2023-03-31T12:51:43.468Z,2.54
2023-03-31T12:52:43.453Z,2.44
2023-03-31T12:53:43.438Z,2.63
2023-03-31T12:54:43.426Z,2.19
2023-03-31T12:55:43.433Z,2.67
2023-03-31T12:56:43.401Z,2.52
2023-03-31T12:57:43.404Z,2.52
2023-03-31T12:58:43.409Z,2.12
2023-03-31T12:59:43.390Z,1.89
2023-03-31T13:00:43.411Z,2.39
2023-03-31T13:01:43.403Z,2.23
2023-03-31T13:02:43.573Z,2.17
2023-03-31T13:03:43.380Z,2.25
2023-03-31T13:04:43.354Z,2.17
2023-03-31T13:05:43.356Z,1.64
2023-03-31T13:06:43.340Z,1.89
2023-03-31T13:07:43.352Z,2.20
2023-03-31T13:08:43.350Z,2.34
2023-03-31T13:09:43.333Z,1.94
2023-03-31T13:10:43.335Z,2.11
2023-03-31T13:11:43.339Z,1.97
2023-03-31T13:12:43.318Z,1.86
2023-03-31T13:13:58.088Z,1.85
2023-03-31T13:14:44.264Z,2.14
2023-03-31T13:15:43.305Z,2.15
2023-03-31T13:16:43.371Z,1.81
2023-03-31T13:17:43.269Z,1.94
2023-03-31T13:18:43.269Z,2.00
2023-03-31T13:19:43.243Z,1.93
2023-03-31T13:20:43.253Z,1.84
2023-03-31T13:21:43.257Z,2.71
2023-03-31T13:22:43.227Z,2.17
2023-03-31T13:23:43.207Z,1.84
2023-03-31T13:24:43.226Z,1.84
2023-03-31T13:25:43.210Z,1.77
2023-03-31T13:26:43.221Z,2.03
2023-03-31T13:27:43.199Z,1.49
2023-03-31T13:28:43.160Z,1.98
2023-03-31T13:29:43.175Z,1.93
2023-03-31T13:30:43.198Z,1.73
2023-03-31T13:31:43.238Z,1.46
2023-03-31T13:32:43.220Z,1.50
2023-03-31T13:33:43.208Z,1.37
2023-03-31T13:34:43.175Z,1.64
2023-03-31T13:35:43.165Z,1.66
2023-03-31T13:36:43.159Z,1.69
2023-03-31T13:37:43.157Z,1.82
2023-03-31T13:38:43.171Z,1.76
2023-03-31T13:39:43.089Z,1.65
2023-03-31T13:40:43.114Z,1.53
2023-03-31T13:41:43.167Z,1.69
2023-03-31T13:42:43.130Z,1.66
2023-03-31T13:43:43.107Z,1.43
2023-03-31T13:44:43.077Z,1.76
2023-03-31T13:45:44.188Z,1.73
2023-03-31T13:46:43.162Z,1.71
2023-03-31T13:47:43.114Z,1.58
2023-03-31T13:48:43.147Z,1.52
2023-03-31T13:49:43.136Z,1.44
2023-03-31T13:50:43.158Z,1.57
2023-03-31T13:51:43.148Z,1.31
2023-03-31T13:52:43.156Z,1.43
2023-03-31T13:53:43.200Z,1.57
2023-03-31T13:54:43.219Z,1.62
2023-03-31T13:55:43.213Z,1.24
2023-03-31T13:56:43.332Z,1.52
2023-03-31T13:57:43.259Z,1.43
2023-03-31T13:58:43.287Z,1.25
2023-03-31T13:59:43.305Z,1.70
2023-03-31T14:00:43.311Z,1.27
2023-03-31T14:01:43.461Z,1.53
2023-03-31T14:02:43.433Z,1.45
2023-03-31T14:03:43.518Z,1.32
2023-03-31T14:04:43.391Z,1.29
2023-03-31T14:05:43.428Z,1.67
2023-03-31T14:06:43.414Z,1.32
2023-03-31T14:07:43.445Z,1.55
2023-03-31T14:08:43.452Z,1.73
2023-03-31T14:09:43.466Z,1.49
2023-03-31T14:10:43.550Z,1.57
2023-03-31T14:11:43.496Z,1.17
2023-03-31T14:12:43.560Z,1.22
2023-03-31T14:13:43.538Z,1.17
2023-03-31T14:14:43.554Z,1.39
2023-03-31T14:15:43.674Z,1.11
2023-03-31T14:16:43.569Z,0.95
2023-03-31T14:17:43.671Z,1.51
2023-03-31T14:18:43.609Z,1.10
2023-03-31T14:19:43.679Z,1.27
2023-03-31T14:20:43.680Z,1.12
2023-03-31T14:21:43.694Z,1.20
2023-03-31T14:22:43.714Z,1.22
2023-03-31T14:23:43.694Z,1.87
2023-03-31T14:24:43.737Z,1.06
2023-03-31T14:25:43.813Z,1.25
2023-03-31T14:26:43.806Z,1.30
2023-03-31T14:27:43.790Z,1.11
2023-03-31T14:28:43.821Z,1.32
2023-03-31T14:29:43.837Z,1.73
2023-03-31T14:30:43.844Z,1.02
2023-03-31T14:31:43.919Z,1.12
2023-03-31T14:32:43.933Z,1.52
2023-03-31T14:33:43.912Z,1.20
2023-03-31T14:34:43.937Z,1.31
2023-03-31T14:35:43.954Z,1.34
2023-03-31T14:36:43.999Z,1.34
2023-03-31T14:37:44.005Z,1.37
2023-03-31T14:38:44.017Z,1.16
2023-03-31T14:39:44.035Z,1.49
2023-03-31T14:40:44.025Z,1.23
2023-03-31T14:41:44.080Z,1.14
2023-03-31T14:42:44.106Z,0.94
2023-03-31T14:43:44.085Z,1.10
2023-03-31T14:44:45.312Z,1.43
2023-03-31T14:45:44.105Z,1.40
2023-03-31T14:46:44.139Z,1.15
2023-03-31T14:47:44.144Z,2.88
2023-03-31T14:48:44.074Z,1.21
2023-03-31T14:49:44.046Z,0.98
2023-03-31T14:50:44.037Z,1.30
2023-03-31T14:51:44.051Z,1.09
2023-03-31T14:52:44.077Z,1.14
2023-03-31T14:53:44.036Z,1.21
2023-03-31T14:54:44.067Z,1.10
2023-03-31T14:55:57.452Z,0.83
2023-03-31T14:56:45.058Z,1.09
2023-03-31T14:57:44.037Z,1.02
2023-03-31T14:58:44.042Z,0.97
2023-03-31T14:59:43.990Z,1.36
2023-03-31T15:00:44.064Z,1.01
2023-03-31T15:01:44.008Z,1.04
2023-03-31T15:02:43.996Z,1.36
2023-03-31T15:03:44.002Z,1.14
2023-03-31T15:04:44.028Z,0.79
2023-03-31T15:05:43.989Z,1.32
2023-03-31T15:06:43.961Z,0.95
2023-03-31T15:07:43.986Z,1.10
2023-03-31T15:08:43.965Z,1.21
2023-03-31T15:09:43.931Z,1.34
2023-03-31T15:10:43.926Z,0.99
2023-03-31T15:11:43.941Z,1.23
2023-03-31T15:12:43.981Z,1.18
2023-03-31T15:13:46.979Z,1.00
2023-03-31T15:14:44.918Z,1.29
2023-03-31T15:15:43.916Z,1.17
2023-03-31T15:16:43.986Z,1.00
2023-03-31T15:17:43.931Z,1.17
2023-03-31T15:18:43.931Z,1.21
2023-03-31T15:19:43.876Z,1.11
2023-03-31T15:20:43.916Z,0.93
2023-03-31T15:21:43.865Z,0.86
2023-03-31T15:22:43.881Z,0.97
2023-03-31T15:23:43.877Z,0.97
2023-03-31T15:24:43.846Z,0.91
2023-03-31T15:25:43.818Z,1.31
2023-03-31T15:26:43.810Z,0.81
2023-03-31T15:27:43.828Z,1.09
2023-03-31T15:28:43.827Z,1.21
2023-03-31T15:29:43.811Z,0.93
2023-03-31T15:30:43.800Z,1.10
2023-03-31T15:31:43.838Z,1.22
2023-03-31T15:32:43.896Z,1.04
2023-03-31T15:33:44.039Z,1.24
2023-03-31T15:34:43.807Z,1.10
2023-03-31T15:35:43.806Z,1.01
2023-03-31T15:36:43.796Z,1.10
2023-03-31T15:37:43.841Z,1.02
2023-03-31T15:38:43.839Z,1.28
2023-03-31T15:39:43.854Z,1.06
2023-03-31T15:40:43.907Z,1.22
2023-03-31T15:41:43.890Z,1.32
2023-03-31T15:43:43.933Z,1.01
2023-03-31T15:44:43.969Z,1.20
2023-03-31T15:45:43.982Z,1.14
2023-03-31T15:46:44.001Z,1.20
2023-03-31T15:47:44.077Z,1.01
2023-03-31T15:48:44.007Z,0.97
2023-03-31T15:49:44.068Z,1.07
2023-03-31T15:50:44.071Z,1.26
2023-03-31T15:51:44.080Z,1.28
2023-03-31T15:52:44.145Z,0.94
2023-03-31T15:53:44.147Z,1.12
2023-03-31T15:54:44.150Z,0.97
2023-03-31T15:56:44.322Z,1.22
2023-03-31T15:57:44.190Z,1.12
2023-03-31T15:58:44.178Z,1.25
2023-03-31T15:59:54.575Z,1.06
2023-03-31T16:00:45.208Z,1.22
2023-03-31T16:01:44.301Z,1.17
2023-03-31T16:02:44.255Z,0.79
2023-03-31T16:03:44.205Z,1.09
2023-03-31T16:04:44.197Z,1.12
2023-03-31T16:05:54.476Z,1.20
2023-03-31T16:06:45.208Z,1.22
2023-03-31T16:07:44.163Z,1.19
2023-03-31T16:08:44.757Z,1.21
2023-03-31T16:09:44.148Z,0.90
2023-03-31T16:10:44.124Z,1.12
2023-03-31T16:11:44.167Z,1.09
2023-03-31T16:12:44.137Z,1.45
2023-03-31T16:13:44.156Z,1.32
2023-03-31T16:14:44.127Z,1.17
2023-03-31T16:15:44.161Z,1.44
2023-03-31T16:16:44.102Z,1.05
2023-03-31T16:17:44.175Z,1.24
2023-03-31T16:18:44.108Z,1.37
2023-03-31T16:19:44.117Z,1.38
2023-03-31T16:20:45.056Z,1.16
2023-03-31T16:21:44.078Z,1.50
2023-03-31T16:22:44.083Z,1.10
2023-03-31T16:23:44.092Z,1.18
2023-03-31T16:24:44.046Z,1.50
2023-03-31T16:25:44.052Z,1.31
2023-03-31T16:26:44.026Z,1.31
2023-03-31T16:27:44.037Z,1.31
2023-03-31T16:28:44.109Z,1.39
2023-03-31T16:29:44.100Z,1.06
2023-03-31T16:30:44.144Z,1.24
2023-03-31T16:31:44.189Z,1.68
2023-03-31T16:32:44.230Z,1.21
2023-03-31T16:33:44.212Z,1.46
2023-03-31T16:34:44.244Z,1.28
2023-03-31T16:35:44.334Z,1.26
2023-03-31T16:36:44.369Z,1.62
2023-03-31T16:37:44.338Z,1.25
2023-03-31T16:38:44.395Z,1.28
2023-03-31T16:39:44.403Z,1.36
2023-03-31T16:40:44.485Z,1.66
2023-03-31T16:41:44.480Z,1.20
2023-03-31T16:42:44.496Z,1.20
2023-03-31T16:43:44.573Z,1.08
2023-03-31T16:44:47.240Z,1.18
2023-03-31T16:45:45.585Z,1.50
2023-03-31T16:46:44.592Z,1.19
2023-03-31T16:47:45.760Z,1.34
2023-03-31T16:48:44.615Z,1.30
2023-03-31T16:49:44.793Z,1.47
2023-03-31T16:50:44.535Z,1.15
2023-03-31T16:51:44.559Z,1.01
2023-03-31T16:52:44.572Z,1.64
2023-03-31T16:53:44.520Z,1.01
2023-03-31T16:54:44.516Z,1.10
2023-03-31T16:55:44.565Z,1.24
2023-03-31T16:56:44.564Z,1.13
2023-03-31T16:57:44.519Z,1.48
2023-03-31T16:58:44.481Z,1.30
2023-03-31T16:59:44.512Z,1.12
2023-03-31T17:00:44.524Z,1.36
2023-03-31T17:01:44.509Z,1.04
2023-03-31T17:02:44.613Z,1.23
2023-03-31T17:03:44.760Z,1.09
2023-03-31T17:04:44.574Z,0.98
2023-03-31T17:05:44.622Z,1.42
2023-03-31T17:06:44.650Z,1.25
2023-03-31T17:07:44.691Z,1.27
2023-03-31T17:08:44.695Z,1.39
2023-03-31T17:09:44.736Z,1.19
2023-03-31T17:10:44.767Z,1.20
2023-03-31T17:11:45.003Z,1.04
2023-03-31T17:12:44.844Z,1.58
2023-03-31T17:13:44.918Z,0.99
2023-03-31T17:14:44.890Z,1.39
2023-03-31T17:15:44.920Z,0.98
2023-03-31T17:16:48.436Z,1.08
2023-03-31T17:17:44.997Z,1.26
2023-03-31T17:18:44.966Z,1.33
2023-03-31T17:19:45.111Z,1.16
2023-03-31T17:20:44.923Z,0.90
2023-03-31T17:21:44.896Z,1.29
2023-03-31T17:22:44.935Z,1.36
2023-03-31T17:23:44.915Z,1.01
2023-03-31T17:24:44.884Z,1.16
2023-03-31T17:25:44.909Z,1.37
2023-03-31T17:26:44.881Z,1.32
2023-03-31T17:27:44.881Z,0.99
2023-03-31T17:28:44.864Z,1.13
2023-03-31T17:29:44.868Z,0.97
2023-03-31T17:30:44.858Z,1.13
2023-03-31T17:31:44.919Z,1.08
2023-03-31T17:32:44.897Z,1.15
2023-03-31T17:33:44.842Z,1.22
2023-03-31T17:34:44.831Z,0.90
2023-03-31T17:35:44.822Z,1.27
2023-03-31T17:36:44.939Z,1.07
2023-03-31T17:37:44.809Z,1.12
2023-03-31T17:38:44.817Z,1.12
2023-03-31T17:39:44.797Z,1.20
2023-03-31T17:40:44.786Z,1.27
2023-03-31T17:41:44.814Z,1.13
2023-03-31T17:42:44.799Z,1.41
2023-03-31T17:43:44.851Z,1.36
2023-03-31T17:44:44.766Z,1.38
2023-03-31T17:45:44.776Z,1.23
2023-03-31T17:46:44.823Z,1.25
2023-03-31T17:47:44.763Z,1.26
2023-03-31T17:48:44.754Z,1.34
2023-03-31T17:49:44.776Z,1.27
2023-03-31T17:50:44.725Z,1.06
2023-03-31T17:51:44.727Z,1.46
2023-03-31T17:52:44.693Z,1.03
2023-03-31T17:53:44.728Z,0.95
2023-03-31T17:54:44.697Z,1.14
2023-03-31T17:55:44.715Z,0.83
2023-03-31T17:56:44.690Z,1.02
2023-03-31T17:57:44.733Z,1.06
2023-03-31T17:58:44.682Z,1.46
2023-03-31T17:59:44.661Z,1.30
2023-03-31T18:00:44.677Z,1.07
2023-03-31T18:01:44.760Z,1.36
2023-03-31T18:02:44.727Z,1.29
2023-03-31T18:03:44.786Z,1.26
2023-03-31T18:04:44.833Z,1.19
2023-03-31T18:05:44.848Z,1.28
2023-03-31T18:06:44.834Z,1.33
2023-03-31T18:07:44.875Z,1.08
2023-03-31T18:08:44.965Z,1.04
2023-03-31T18:09:44.954Z,1.18
2023-03-31T18:10:44.997Z,1.01
2023-03-31T18:11:45.041Z,1.22
2023-03-31T18:12:45.072Z,0.99
2023-03-31T18:13:45.122Z,1.22
2023-03-31T18:14:45.129Z,1.02
2023-03-31T18:15:45.252Z,1.30
2023-03-31T18:16:45.201Z,1.07
2023-03-31T18:17:45.314Z,1.32
2023-03-31T18:18:45.283Z,1.14
2023-03-31T18:19:45.294Z,1.28
2023-03-31T18:20:45.361Z,1.30
2023-03-31T18:21:45.376Z,0.85
2023-03-31T18:22:45.420Z,1.14
2023-03-31T18:23:45.459Z,1.08
2023-03-31T18:24:45.496Z,1.11
2023-03-31T18:25:45.557Z,1.51
2023-03-31T18:26:45.574Z,1.55
2023-03-31T18:27:45.591Z,0.89
2023-03-31T18:28:45.609Z,1.03
2023-03-31T18:29:45.638Z,1.07
2023-03-31T18:30:45.678Z,1.11
2023-03-31T18:31:45.783Z,1.09
2023-03-31T18:32:45.817Z,1.67
2023-03-31T18:33:45.864Z,1.20
2023-03-31T18:34:45.830Z,1.49
2023-03-31T18:35:45.930Z,1.01
2023-03-31T18:36:45.969Z,1.05
2023-03-31T18:37:45.976Z,1.11
2023-03-31T18:38:46.008Z,1.16
2023-03-31T18:39:46.017Z,1.34
2023-03-31T18:40:46.082Z,1.07
2023-03-31T18:41:46.116Z,1.49
2023-03-31T18:42:46.138Z,1.14
2023-03-31T18:43:46.171Z,1.43
2023-03-31T18:44:46.208Z,1.38
2023-03-31T18:45:46.259Z,1.35
2023-03-31T18:46:46.363Z,1.21
2023-03-31T18:47:46.374Z,1.34
2023-03-31T18:48:46.370Z,1.18
2023-03-31T18:49:46.424Z,1.25
2023-03-31T18:50:46.460Z,1.39
2023-03-31T18:51:46.509Z,1.27
2023-03-31T18:52:47.751Z,1.26
2023-03-31T18:53:46.632Z,1.37
2023-03-31T18:54:46.641Z,1.26
2023-03-31T18:55:46.683Z,1.48
2023-03-31T18:56:46.771Z,1.59
2023-03-31T18:57:46.801Z,1.38
2023-03-31T18:58:46.874Z,1.25
2023-03-31T18:59:46.857Z,1.41
2023-03-31T19:00:47.046Z,1.41
2023-03-31T19:01:46.997Z,1.31
2023-03-31T19:02:47.080Z,1.22
2023-03-31T19:03:47.050Z,1.64
2023-03-31T19:04:47.102Z,1.11
2023-03-31T19:05:47.143Z,1.54
2023-03-31T19:06:47.204Z,1.38
2023-03-31T19:07:47.262Z,1.24
2023-03-31T19:08:47.278Z,1.56
2023-03-31T19:09:47.319Z,1.45
2023-03-31T19:10:47.380Z,1.42
2023-03-31T19:11:47.429Z,1.42
2023-03-31T19:12:47.482Z,1.40
2023-03-31T19:13:47.542Z,1.29
2023-03-31T19:14:47.583Z,1.12
2023-03-31T19:15:47.586Z,1.55
2023-03-31T19:16:47.704Z,1.46
2023-03-31T19:17:47.763Z,1.45
2023-03-31T19:18:47.751Z,1.45
2023-03-31T19:19:47.829Z,1.40
2023-03-31T19:20:47.834Z,1.17
2023-03-31T19:21:47.863Z,1.08
2023-03-31T19:22:47.923Z,1.85
2023-03-31T19:23:47.962Z,1.23
2023-03-31T19:24:48.009Z,1.25
2023-03-31T19:25:48.029Z,1.77
2023-03-31T19:26:48.097Z,1.47
2023-03-31T19:27:48.164Z,1.50
2023-03-31T19:28:48.176Z,1.48
2023-03-31T19:29:48.256Z,1.02
2023-03-31T19:30:48.318Z,1.35
2023-03-31T19:31:48.345Z,1.16
2023-03-31T19:32:48.415Z,1.78
2023-03-31T19:33:48.430Z,0.99
2023-03-31T19:34:48.450Z,1.38
2023-03-31T19:35:48.534Z,1.31
2023-03-31T19:36:48.559Z,1.38
2023-03-31T19:37:48.641Z,1.48
2023-03-31T19:38:48.617Z,1.27
2023-03-31T19:39:48.681Z,1.71
2023-03-31T19:40:48.706Z,1.53
2023-03-31T19:41:48.791Z,1.38
2023-03-31T19:42:48.795Z,1.86
2023-03-31T19:43:48.836Z,1.53
2023-03-31T19:44:48.876Z,1.44
2023-03-31T19:45:48.921Z,1.51
2023-03-31T19:46:48.950Z,1.48
2023-03-31T19:47:49.046Z,1.55
2023-03-31T19:48:49.137Z,1.35
2023-03-31T19:49:49.120Z,1.45
2023-03-31T19:50:49.118Z,1.59
2023-03-31T19:51:49.161Z,1.74
2023-03-31T19:52:49.963Z,1.51
2023-03-31T19:53:49.251Z,1.42
2023-03-31T19:54:49.284Z,1.68
2023-03-31T19:55:49.302Z,1.51
2023-03-31T19:56:49.366Z,1.30
2023-03-31T19:57:49.422Z,1.18
2023-03-31T19:58:49.446Z,1.15
2023-03-31T19:59:49.451Z,1.31
2023-03-31T20:00:49.523Z,1.75
2023-03-31T20:01:49.646Z,1.71
2023-03-31T20:02:49.765Z,1.40
2023-03-31T20:03:49.713Z,1.21
2023-03-31T20:04:49.787Z,1.42
2023-03-31T20:05:49.723Z,1.64
2023-03-31T20:06:49.744Z,1.51
2023-03-31T20:07:49.775Z,1.60
2023-03-31T20:08:49.811Z,1.16
2023-03-31T20:09:49.871Z,1.32
2023-03-31T20:10:49.961Z,1.17
2023-03-31T20:11:49.969Z,1.33
2023-03-31T20:12:49.997Z,1.06
2023-03-31T20:13:50.005Z,1.24
2023-03-31T20:14:50.035Z,1.65
2023-03-31T20:15:50.088Z,1.07
2023-03-31T20:16:50.159Z,1.54
2023-03-31T20:17:50.212Z,1.46
2023-03-31T20:18:50.196Z,1.70
2023-03-31T20:19:50.252Z,1.43
2023-03-31T20:20:50.271Z,1.50
2023-03-31T20:21:50.278Z,1.44
2023-03-31T20:22:50.365Z,1.39
2023-03-31T20:23:50.399Z,1.30
2023-03-31T20:24:50.450Z,1.34
2023-03-31T20:25:50.430Z,1.38
2023-03-31T20:26:50.461Z,1.84
2023-03-31T20:27:50.539Z,1.16
2023-03-31T20:28:50.577Z,1.60
2023-03-31T20:29:50.588Z,1.43
2023-03-31T20:30:50.627Z,1.88
2023-03-31T20:31:50.781Z,1.40
2023-03-31T20:32:50.729Z,1.26
2023-03-31T20:33:50.826Z,1.55
2023-03-31T20:34:50.841Z,1.43
2023-03-31T20:35:50.853Z,1.73
2023-03-31T20:36:50.890Z,1.62
2023-03-31T20:37:50.906Z,1.73
2023-03-31T20:38:50.951Z,1.31
2023-03-31T20:39:51.028Z,1.53
2023-03-31T20:40:51.043Z,1.49
2023-03-31T20:41:51.055Z,1.64
2023-03-31T20:42:51.106Z,1.66
2023-03-31T20:43:51.199Z,1.48
2023-03-31T20:44:51.207Z,1.65
2023-03-31T20:45:51.250Z,1.28
2023-03-31T20:46:51.303Z,1.69
2023-03-31T20:47:51.345Z,1.78
2023-03-31T20:48:51.643Z,1.90
2023-03-31T20:49:51.408Z,1.46
2023-03-31T20:50:51.466Z,1.64
2023-03-31T20:51:51.481Z,1.24
2023-03-31T20:52:51.559Z,1.66
2023-03-31T20:53:51.593Z,1.67
2023-03-31T20:54:51.630Z,1.51
2023-03-31T20:55:51.676Z,1.37
2023-03-31T20:56:51.741Z,1.65
2023-03-31T20:57:51.761Z,1.66
2023-03-31T20:58:51.802Z,1.64
2023-03-31T20:59:51.876Z,1.46
2023-03-31T21:00:51.893Z,1.60
2023-03-31T21:01:51.922Z,1.72
2023-03-31T21:02:52.008Z,1.73
2023-03-31T21:03:52.016Z,1.55
2023-03-31T21:04:52.049Z,1.87
2023-03-31T21:05:52.061Z,1.52
2023-03-31T21:06:52.129Z,1.84
2023-03-31T21:07:52.163Z,1.40
2023-03-31T21:08:52.244Z,1.62
2023-03-31T21:09:52.263Z,1.91
2023-03-31T21:10:52.303Z,2.03
2023-03-31T21:11:52.312Z,1.60
2023-03-31T21:12:52.335Z,1.61
2023-03-31T21:13:52.393Z,1.52
2023-03-31T21:14:52.443Z,1.33
2023-03-31T21:15:52.511Z,1.56
2023-03-31T21:16:52.560Z,1.87
2023-03-31T21:17:52.614Z,1.41
2023-03-31T21:18:52.626Z,1.52
2023-03-31T21:19:52.734Z,1.55
2023-03-31T21:20:52.714Z,1.67
2023-03-31T21:21:52.781Z,1.32
2023-03-31T21:22:52.789Z,1.81
2023-03-31T21:23:52.853Z,1.93
2023-03-31T21:24:52.905Z,1.79
2023-03-31T21:25:52.938Z,1.88
2023-03-31T21:26:52.925Z,1.62
2023-03-31T21:27:52.990Z,1.80
2023-03-31T21:28:53.028Z,2.11
2023-03-31T21:29:53.068Z,1.63
2023-03-31T21:30:53.136Z,1.84
2023-03-31T21:31:53.192Z,1.97
2023-03-31T21:32:53.217Z,1.64
2023-03-31T21:33:53.230Z,1.59
2023-03-31T21:34:53.287Z,1.83
2023-03-31T21:35:53.370Z,1.38
2023-03-31T21:36:53.397Z,1.69
2023-03-31T21:37:53.414Z,1.56
2023-03-31T21:38:53.440Z,1.67
2023-03-31T21:39:53.478Z,1.29
2023-03-31T21:40:53.555Z,1.76
2023-03-31T21:41:53.578Z,1.82
2023-03-31T21:42:53.658Z,1.51
2023-03-31T21:43:53.672Z,2.02
2023-03-31T21:44:53.733Z,1.61
2023-03-31T21:45:53.797Z,1.84
2023-03-31T21:46:53.830Z,1.92
2023-03-31T21:47:53.912Z,1.94
2023-03-31T21:48:53.957Z,1.44
2023-03-31T21:49:53.976Z,1.49
2023-03-31T21:50:54.048Z,1.40
2023-03-31T21:51:54.090Z,1.61
2023-03-31T21:52:54.178Z,1.62
2023-03-31T21:53:54.193Z,1.59
2023-03-31T21:54:54.210Z,1.70
2023-03-31T21:55:54.243Z,2.13
2023-03-31T21:56:54.326Z,1.61
2023-03-31T21:57:54.399Z,1.58
2023-03-31T21:58:54.444Z,1.72
2023-03-31T21:59:54.437Z,1.48
2023-03-31T22:00:54.506Z,1.73
2023-03-31T22:01:54.650Z,1.85
2023-03-31T22:03:06.298Z,1.61
2023-03-31T22:03:55.595Z,1.72
2023-03-31T22:04:54.625Z,1.82
2023-03-31T22:05:54.589Z,2.05
2023-03-31T22:06:54.623Z,1.69
2023-03-31T22:07:54.599Z,1.66
2023-03-31T22:08:54.557Z,1.73
2023-03-31T22:09:54.567Z,2.12
2023-03-31T22:10:54.556Z,1.75
2023-03-31T22:11:54.539Z,1.77
2023-03-31T22:12:54.525Z,1.69
2023-03-31T22:13:54.601Z,1.97
2023-03-31T22:14:54.656Z,1.84
2023-03-31T22:15:54.751Z,1.62
2023-03-31T22:16:54.741Z,1.49
2023-03-31T22:17:54.798Z,1.64
2023-03-31T22:18:54.821Z,1.53
2023-03-31T22:19:54.891Z,1.92
2023-03-31T22:20:54.921Z,1.54
2023-03-31T22:21:54.970Z,1.49